sensor_id;sensor_type;location;lat;lon;timestamp;P1;durP1;ratioP1;P2;durP2;ratioP2
7334;SDS011;3708;42.632;23.378;2023-08-01T00:02:05;4.50;;;2.27;;
7334;SDS011;3708;42.632;23.378;2023-08-01T00:04:33;3.03;;;2.20;;
7334;SDS011;3708;42.632;23.378;2023-08-01T00:07:00;2.57;;;2.27;;
7334;SDS011;3708;42.632;23.378;2023-08-01T00:09:26;3.63;;;2.07;;
7334;SDS011;3708;42.632;23.378;2023-08-01T00:11:53;2.83;;;2.00;;
7334;SDS011;3708;42.632;23.378;2023-08-01T00:14:20;2.27;;;1.97;;
7334;SDS011;3708;42.632;23.378;2023-08-01T00:16:49;4.40;;;2.20;;
7334;SDS011;3708;42.632;23.378;2023-08-01T00:19:16;4.20;;;2.50;;
7334;SDS011;3708;42.632;23.378;2023-08-01T00:21:44;3.15;;;2.03;;
7334;SDS011;3708;42.632;23.378;2023-08-01T00:24:12;2.72;;;2.15;;
7334;SDS011;3708;42.632;23.378;2023-08-01T00:26:39;2.57;;;2.30;;
7334;SDS011;3708;42.632;23.378;2023-08-01T00:29:05;5.05;;;2.05;;
7334;SDS011;3708;42.632;23.378;2023-08-01T00:34:07;2.20;;;1.90;;
7334;SDS011;3708;42.632;23.378;2023-08-01T00:36:34;2.73;;;2.30;;
7334;SDS011;3708;42.632;23.378;2023-08-01T00:39:02;2.30;;;2.00;;
7334;SDS011;3708;42.632;23.378;2023-08-01T00:41:29;2.25;;;1.85;;
7334;SDS011;3708;42.632;23.378;2023-08-01T00:43:56;2.88;;;2.25;;
7334;SDS011;3708;42.632;23.378;2023-08-01T00:46:23;2.50;;;2.30;;
7334;SDS011;3708;42.632;23.378;2023-08-01T00:48:50;2.33;;;1.90;;
7334;SDS011;3708;42.632;23.378;2023-08-01T00:51:17;4.38;;;2.45;;
7334;SDS011;3708;42.632;23.378;2023-08-01T00:53:45;5.38;;;2.33;;
7334;SDS011;3708;42.632;23.378;2023-08-01T00:56:14;3.15;;;2.67;;
7334;SDS011;3708;42.632;23.378;2023-08-01T00:58:41;4.95;;;2.30;;
7334;SDS011;3708;42.632;23.378;2023-08-01T01:01:07;3.70;;;2.40;;
7334;SDS011;3708;42.632;23.378;2023-08-01T01:03:34;3.30;;;2.28;;
7334;SDS011;3708;42.632;23.378;2023-08-01T01:06:08;2.20;;;2.00;;
7334;SDS011;3708;42.632;23.378;2023-08-01T01:08:42;3.07;;;2.60;;
7334;SDS011;3708;42.632;23.378;2023-08-01T01:11:08;3.45;;;2.40;;
7334;SDS011;3708;42.632;23.378;2023-08-01T01:13:37;3.13;;;2.60;;
7334;SDS011;3708;42.632;23.378;2023-08-01T01:16:03;4.20;;;2.53;;
7334;SDS011;3708;42.632;23.378;2023-08-01T01:18:30;3.00;;;2.33;;
7334;SDS011;3708;42.632;23.378;2023-08-01T01:20:58;2.30;;;2.10;;
7334;SDS011;3708;42.632;23.378;2023-08-01T01:23:25;4.10;;;2.28;;
7334;SDS011;3708;42.632;23.378;2023-08-01T01:25:54;2.65;;;2.25;;
7334;SDS011;3708;42.632;23.378;2023-08-01T01:28:22;4.22;;;2.13;;
7334;SDS011;3708;42.632;23.378;2023-08-01T01:30:50;3.58;;;2.50;;
7334;SDS011;3708;42.632;23.378;2023-08-01T01:33:19;3.03;;;2.00;;
7334;SDS011;3708;42.632;23.378;2023-08-01T01:35:46;5.65;;;2.42;;
7334;SDS011;3708;42.632;23.378;2023-08-01T01:38:15;2.95;;;2.20;;
7334;SDS011;3708;42.632;23.378;2023-08-01T01:40:42;3.10;;;2.33;;
7334;SDS011;3708;42.632;23.378;2023-08-01T01:43:09;4.82;;;2.42;;
7334;SDS011;3708;42.632;23.378;2023-08-01T01:45:36;4.00;;;2.42;;
7334;SDS011;3708;42.632;23.378;2023-08-01T01:48:21;2.10;;;1.90;;
7334;SDS011;3708;42.632;23.378;2023-08-01T01:50:48;2.30;;;1.88;;
7334;SDS011;3708;42.632;23.378;2023-08-01T01:53:17;3.60;;;2.47;;
7334;SDS011;3708;42.632;23.378;2023-08-01T01:55:43;3.63;;;2.38;;
7334;SDS011;3708;42.632;23.378;2023-08-01T01:58:10;2.55;;;2.30;;
7334;SDS011;3708;42.632;23.378;2023-08-01T02:00:37;4.18;;;2.30;;
7334;SDS011;3708;42.632;23.378;2023-08-01T02:03:04;3.65;;;2.28;;
7334;SDS011;3708;42.632;23.378;2023-08-01T02:05:32;4.18;;;2.50;;
7334;SDS011;3708;42.632;23.378;2023-08-01T02:07:59;4.35;;;2.28;;
7334;SDS011;3708;42.632;23.378;2023-08-01T02:10:27;2.70;;;2.50;;
7334;SDS011;3708;42.632;23.378;2023-08-01T02:12:54;3.03;;;2.25;;
7334;SDS011;3708;42.632;23.378;2023-08-01T02:15:21;6.67;;;2.23;;
7334;SDS011;3708;42.632;23.378;2023-08-01T02:17:48;3.63;;;2.40;;
7334;SDS011;3708;42.632;23.378;2023-08-01T02:20:14;2.83;;;2.43;;
7334;SDS011;3708;42.632;23.378;2023-08-01T02:22:41;3.40;;;2.70;;
7334;SDS011;3708;42.632;23.378;2023-08-01T02:25:08;5.05;;;2.47;;
7334;SDS011;3708;42.632;23.378;2023-08-01T02:27:37;2.43;;;2.23;;
7334;SDS011;3708;42.632;23.378;2023-08-01T02:30:05;5.57;;;2.50;;
7334;SDS011;3708;42.632;23.378;2023-08-01T02:32:32;3.60;;;2.80;;
7334;SDS011;3708;42.632;23.378;2023-08-01T02:34:59;2.42;;;2.17;;
7334;SDS011;3708;42.632;23.378;2023-08-01T02:37:26;5.13;;;2.97;;
7334;SDS011;3708;42.632;23.378;2023-08-01T02:39:53;3.20;;;2.90;;
7334;SDS011;3708;42.632;23.378;2023-08-01T02:42:20;3.72;;;2.85;;
7334;SDS011;3708;42.632;23.378;2023-08-01T02:44:48;3.75;;;2.47;;
7334;SDS011;3708;42.632;23.378;2023-08-01T02:47:15;4.07;;;3.00;;
7334;SDS011;3708;42.632;23.378;2023-08-01T02:49:42;4.45;;;2.22;;
7334;SDS011;3708;42.632;23.378;2023-08-01T02:52:09;5.55;;;2.90;;
7334;SDS011;3708;42.632;23.378;2023-08-01T02:54:37;4.38;;;2.70;;
7334;SDS011;3708;42.632;23.378;2023-08-01T02:57:04;4.37;;;2.83;;
7334;SDS011;3708;42.632;23.378;2023-08-01T02:59:31;3.65;;;2.60;;
7334;SDS011;3708;42.632;23.378;2023-08-01T03:02:00;2.83;;;2.30;;
7334;SDS011;3708;42.632;23.378;2023-08-01T03:04:26;3.47;;;2.77;;
7334;SDS011;3708;42.632;23.378;2023-08-01T03:06:53;4.87;;;3.17;;
7334;SDS011;3708;42.632;23.378;2023-08-01T03:09:20;5.40;;;2.90;;
7334;SDS011;3708;42.632;23.378;2023-08-01T03:11:47;3.03;;;2.73;;
7334;SDS011;3708;42.632;23.378;2023-08-01T03:14:14;6.80;;;3.63;;
7334;SDS011;3708;42.632;23.378;2023-08-01T03:16:41;5.67;;;2.97;;
7334;SDS011;3708;42.632;23.378;2023-08-01T03:19:10;4.57;;;2.90;;
7334;SDS011;3708;42.632;23.378;2023-08-01T03:21:36;3.67;;;3.00;;
7334;SDS011;3708;42.632;23.378;2023-08-01T03:24:03;4.43;;;2.30;;
7334;SDS011;3708;42.632;23.378;2023-08-01T03:26:33;4.03;;;2.80;;
7334;SDS011;3708;42.632;23.378;2023-08-01T03:29:00;3.13;;;2.83;;
7334;SDS011;3708;42.632;23.378;2023-08-01T03:31:28;5.07;;;2.87;;
7334;SDS011;3708;42.632;23.378;2023-08-01T03:33:55;3.40;;;2.97;;
7334;SDS011;3708;42.632;23.378;2023-08-01T03:36:25;4.87;;;2.77;;
7334;SDS011;3708;42.632;23.378;2023-08-01T03:38:51;3.57;;;2.67;;
7334;SDS011;3708;42.632;23.378;2023-08-01T03:41:24;8.47;;;3.60;;
7334;SDS011;3708;42.632;23.378;2023-08-01T03:43:51;5.20;;;2.57;;
7334;SDS011;3708;42.632;23.378;2023-08-01T03:46:18;5.37;;;3.40;;
7334;SDS011;3708;42.632;23.378;2023-08-01T03:48:45;6.50;;;3.47;;
7334;SDS011;3708;42.632;23.378;2023-08-01T03:51:12;8.57;;;3.53;;
7334;SDS011;3708;42.632;23.378;2023-08-01T03:53:41;4.83;;;3.27;;
7334;SDS011;3708;42.632;23.378;2023-08-01T03:56:08;3.90;;;3.20;;
7334;SDS011;3708;42.632;23.378;2023-08-01T03:58:35;6.67;;;3.87;;
7334;SDS011;3708;42.632;23.378;2023-08-01T04:01:02;4.63;;;3.47;;
7334;SDS011;3708;42.632;23.378;2023-08-01T04:03:29;6.07;;;3.20;;
7334;SDS011;3708;42.632;23.378;2023-08-01T04:05:56;5.83;;;3.40;;
7334;SDS011;3708;42.632;23.378;2023-08-01T04:08:23;4.73;;;3.23;;
7334;SDS011;3708;42.632;23.378;2023-08-01T04:10:51;5.17;;;2.97;;
7334;SDS011;3708;42.632;23.378;2023-08-01T04:13:18;9.03;;;3.30;;
7334;SDS011;3708;42.632;23.378;2023-08-01T04:15:44;10.57;;;4.60;;
7334;SDS011;3708;42.632;23.378;2023-08-01T04:18:11;8.98;;;3.47;;
7334;SDS011;3708;42.632;23.378;2023-08-01T04:20:38;5.15;;;3.92;;
7334;SDS011;3708;42.632;23.378;2023-08-01T04:23:05;6.50;;;3.90;;
7334;SDS011;3708;42.632;23.378;2023-08-01T04:25:32;6.45;;;4.45;;
7334;SDS011;3708;42.632;23.378;2023-08-01T04:28:01;7.65;;;4.13;;
7334;SDS011;3708;42.632;23.378;2023-08-01T04:30:27;5.85;;;3.22;;
7334;SDS011;3708;42.632;23.378;2023-08-01T04:32:54;7.80;;;4.47;;
7334;SDS011;3708;42.632;23.378;2023-08-01T04:35:21;5.60;;;4.55;;
7334;SDS011;3708;42.632;23.378;2023-08-01T04:37:48;7.35;;;4.63;;
7334;SDS011;3708;42.632;23.378;2023-08-01T04:40:15;7.38;;;5.05;;
7334;SDS011;3708;42.632;23.378;2023-08-01T04:42:42;7.90;;;5.05;;
7334;SDS011;3708;42.632;23.378;2023-08-01T04:45:10;6.30;;;4.13;;
7334;SDS011;3708;42.632;23.378;2023-08-01T04:47:37;7.30;;;3.80;;
7334;SDS011;3708;42.632;23.378;2023-08-01T04:50:04;6.20;;;3.55;;
7334;SDS011;3708;42.632;23.378;2023-08-01T04:52:32;4.07;;;3.25;;
7334;SDS011;3708;42.632;23.378;2023-08-01T04:54:59;4.18;;;2.97;;
7334;SDS011;3708;42.632;23.378;2023-08-01T04:57:25;7.47;;;3.00;;
7334;SDS011;3708;42.632;23.378;2023-08-01T04:59:53;4.57;;;2.88;;
7334;SDS011;3708;42.632;23.378;2023-08-01T05:02:24;2.95;;;2.70;;
7334;SDS011;3708;42.632;23.378;2023-08-01T05:04:51;3.88;;;2.67;;
7334;SDS011;3708;42.632;23.378;2023-08-01T05:07:18;3.05;;;2.60;;
7334;SDS011;3708;42.632;23.378;2023-08-01T05:09:45;6.05;;;2.88;;
7334;SDS011;3708;42.632;23.378;2023-08-01T05:12:12;4.43;;;2.80;;
7334;SDS011;3708;42.632;23.378;2023-08-01T05:14:39;4.07;;;2.88;;
7334;SDS011;3708;42.632;23.378;2023-08-01T05:17:06;4.38;;;2.90;;
7334;SDS011;3708;42.632;23.378;2023-08-01T05:19:34;2.60;;;2.40;;
7334;SDS011;3708;42.632;23.378;2023-08-01T05:22:02;4.40;;;2.90;;
7334;SDS011;3708;42.632;23.378;2023-08-01T05:24:30;5.68;;;2.65;;
7334;SDS011;3708;42.632;23.378;2023-08-01T05:26:56;5.30;;;3.00;;
7334;SDS011;3708;42.632;23.378;2023-08-01T05:29:23;5.07;;;2.97;;
7334;SDS011;3708;42.632;23.378;2023-08-01T05:31:50;3.70;;;2.78;;
7334;SDS011;3708;42.632;23.378;2023-08-01T05:34:17;5.18;;;2.97;;
7334;SDS011;3708;42.632;23.378;2023-08-01T05:36:45;6.40;;;2.92;;
7334;SDS011;3708;42.632;23.378;2023-08-01T05:39:12;5.07;;;2.60;;
7334;SDS011;3708;42.632;23.378;2023-08-01T05:41:39;5.82;;;3.33;;
7334;SDS011;3708;42.632;23.378;2023-08-01T05:44:06;4.70;;;3.33;;
7334;SDS011;3708;42.632;23.378;2023-08-01T05:46:33;4.25;;;2.70;;
7334;SDS011;3708;42.632;23.378;2023-08-01T05:49:00;4.53;;;2.88;;
7334;SDS011;3708;42.632;23.378;2023-08-01T05:51:27;12.32;;;2.88;;
7334;SDS011;3708;42.632;23.378;2023-08-01T05:53:56;6.15;;;3.05;;
7334;SDS011;3708;42.632;23.378;2023-08-01T05:56:23;11.27;;;2.92;;
7334;SDS011;3708;42.632;23.378;2023-08-01T05:58:50;8.20;;;2.70;;
7334;SDS011;3708;42.632;23.378;2023-08-01T06:01:21;4.53;;;3.10;;
7334;SDS011;3708;42.632;23.378;2023-08-01T06:03:48;5.07;;;3.30;;
7334;SDS011;3708;42.632;23.378;2023-08-01T06:06:15;4.20;;;3.25;;
7334;SDS011;3708;42.632;23.378;2023-08-01T06:08:41;4.07;;;3.63;;
7334;SDS011;3708;42.632;23.378;2023-08-01T06:11:09;4.95;;;3.20;;
7334;SDS011;3708;42.632;23.378;2023-08-01T06:13:36;7.40;;;3.47;;
7334;SDS011;3708;42.632;23.378;2023-08-01T06:16:03;10.20;;;3.35;;
7334;SDS011;3708;42.632;23.378;2023-08-01T06:18:30;4.22;;;3.00;;
7334;SDS011;3708;42.632;23.378;2023-08-01T06:20:57;4.68;;;3.22;;
7334;SDS011;3708;42.632;23.378;2023-08-01T06:23:24;5.20;;;2.63;;
7334;SDS011;3708;42.632;23.378;2023-08-01T06:25:53;6.82;;;2.78;;
7334;SDS011;3708;42.632;23.378;2023-08-01T06:28:24;5.70;;;2.80;;
7334;SDS011;3708;42.632;23.378;2023-08-01T06:30:51;4.13;;;3.22;;
7334;SDS011;3708;42.632;23.378;2023-08-01T06:33:19;7.80;;;3.03;;
7334;SDS011;3708;42.632;23.378;2023-08-01T06:35:46;5.28;;;3.00;;
7334;SDS011;3708;42.632;23.378;2023-08-01T06:38:13;9.18;;;2.50;;
7334;SDS011;3708;42.632;23.378;2023-08-01T06:40:40;5.35;;;2.83;;
7334;SDS011;3708;42.632;23.378;2023-08-01T06:43:07;8.13;;;2.72;;
7334;SDS011;3708;42.632;23.378;2023-08-01T06:45:37;3.72;;;3.17;;
7334;SDS011;3708;42.632;23.378;2023-08-01T06:48:08;3.63;;;3.17;;
7334;SDS011;3708;42.632;23.378;2023-08-01T06:50:36;6.57;;;3.25;;
7334;SDS011;3708;42.632;23.378;2023-08-01T06:53:04;3.95;;;3.13;;
7334;SDS011;3708;42.632;23.378;2023-08-01T06:55:33;5.57;;;3.58;;
7334;SDS011;3708;42.632;23.378;2023-08-01T06:58:01;3.58;;;2.88;;
7334;SDS011;3708;42.632;23.378;2023-08-01T07:00:28;3.78;;;2.88;;
7334;SDS011;3708;42.632;23.378;2023-08-01T07:02:57;5.55;;;3.50;;
7334;SDS011;3708;42.632;23.378;2023-08-01T07:05:25;4.53;;;2.83;;
7334;SDS011;3708;42.632;23.378;2023-08-01T07:07:53;4.78;;;2.95;;
7334;SDS011;3708;42.632;23.378;2023-08-01T07:10:20;3.72;;;2.90;;
7334;SDS011;3708;42.632;23.378;2023-08-01T07:12:46;3.78;;;3.03;;
7334;SDS011;3708;42.632;23.378;2023-08-01T07:15:14;8.02;;;3.60;;
7334;SDS011;3708;42.632;23.378;2023-08-01T07:17:41;6.57;;;3.78;;
7334;SDS011;3708;42.632;23.378;2023-08-01T07:20:12;6.60;;;3.60;;
7334;SDS011;3708;42.632;23.378;2023-08-01T07:22:40;6.78;;;3.80;;
7334;SDS011;3708;42.632;23.378;2023-08-01T07:25:07;11.27;;;4.35;;
7334;SDS011;3708;42.632;23.378;2023-08-01T07:27:35;5.72;;;3.88;;
7334;SDS011;3708;42.632;23.378;2023-08-01T07:30:03;8.98;;;4.03;;
7334;SDS011;3708;42.632;23.378;2023-08-01T07:32:30;7.18;;;4.15;;
7334;SDS011;3708;42.632;23.378;2023-08-01T07:34:57;9.90;;;3.30;;
7334;SDS011;3708;42.632;23.378;2023-08-01T07:37:28;6.28;;;4.25;;
7334;SDS011;3708;42.632;23.378;2023-08-01T07:39:56;5.40;;;3.65;;
7334;SDS011;3708;42.632;23.378;2023-08-01T07:42:23;10.50;;;3.55;;
7334;SDS011;3708;42.632;23.378;2023-08-01T07:44:50;7.50;;;4.15;;
7334;SDS011;3708;42.632;23.378;2023-08-01T07:47:18;10.27;;;3.67;;
7334;SDS011;3708;42.632;23.378;2023-08-01T07:49:44;9.43;;;3.55;;
7334;SDS011;3708;42.632;23.378;2023-08-01T07:52:11;9.57;;;4.20;;
7334;SDS011;3708;42.632;23.378;2023-08-01T07:54:40;7.07;;;3.95;;
7334;SDS011;3708;42.632;23.378;2023-08-01T07:57:07;7.25;;;3.33;;
7334;SDS011;3708;42.632;23.378;2023-08-01T07:59:34;5.78;;;3.80;;
7334;SDS011;3708;42.632;23.378;2023-08-01T08:02:00;7.13;;;3.17;;
7334;SDS011;3708;42.632;23.378;2023-08-01T08:04:27;4.97;;;3.33;;
7334;SDS011;3708;42.632;23.378;2023-08-01T08:06:55;4.05;;;3.40;;
7334;SDS011;3708;42.632;23.378;2023-08-01T08:09:25;4.50;;;3.33;;
7334;SDS011;3708;42.632;23.378;2023-08-01T08:11:53;6.82;;;3.65;;
7334;SDS011;3708;42.632;23.378;2023-08-01T08:14:22;10.15;;;3.85;;
7334;SDS011;3708;42.632;23.378;2023-08-01T08:16:49;5.45;;;3.88;;
7334;SDS011;3708;42.632;23.378;2023-08-01T08:19:16;5.63;;;3.85;;
7334;SDS011;3708;42.632;23.378;2023-08-01T08:21:43;8.07;;;4.20;;
7334;SDS011;3708;42.632;23.378;2023-08-01T08:24:10;5.93;;;3.53;;
7334;SDS011;3708;42.632;23.378;2023-08-01T08:26:37;5.15;;;3.78;;
7334;SDS011;3708;42.632;23.378;2023-08-01T08:29:06;5.13;;;3.25;;
7334;SDS011;3708;42.632;23.378;2023-08-01T08:31:33;6.95;;;3.20;;
7334;SDS011;3708;42.632;23.378;2023-08-01T08:34:00;5.68;;;3.17;;
7334;SDS011;3708;42.632;23.378;2023-08-01T08:36:27;7.15;;;3.67;;
7334;SDS011;3708;42.632;23.378;2023-08-01T08:38:54;8.55;;;4.03;;
7334;SDS011;3708;42.632;23.378;2023-08-01T08:41:22;7.10;;;3.67;;
7334;SDS011;3708;42.632;23.378;2023-08-01T08:43:53;4.22;;;3.50;;
7334;SDS011;3708;42.632;23.378;2023-08-01T08:46:25;6.88;;;3.92;;
7334;SDS011;3708;42.632;23.378;2023-08-01T08:48:55;4.95;;;3.00;;
7334;SDS011;3708;42.632;23.378;2023-08-01T08:51:23;9.50;;;3.65;;
7334;SDS011;3708;42.632;23.378;2023-08-01T08:53:53;5.55;;;3.53;;
7334;SDS011;3708;42.632;23.378;2023-08-01T08:56:20;9.95;;;3.50;;
7334;SDS011;3708;42.632;23.378;2023-08-01T08:58:47;4.72;;;3.38;;
7334;SDS011;3708;42.632;23.378;2023-08-01T09:01:15;10.57;;;3.03;;
7334;SDS011;3708;42.632;23.378;2023-08-01T09:03:44;5.55;;;3.17;;
7334;SDS011;3708;42.632;23.378;2023-08-01T09:06:12;9.07;;;3.53;;
7334;SDS011;3708;42.632;23.378;2023-08-01T09:08:43;7.25;;;3.22;;
7334;SDS011;3708;42.632;23.378;2023-08-01T09:11:16;8.48;;;3.30;;
7334;SDS011;3708;42.632;23.378;2023-08-01T09:13:43;5.03;;;3.30;;
7334;SDS011;3708;42.632;23.378;2023-08-01T09:16:10;4.90;;;3.65;;
7334;SDS011;3708;42.632;23.378;2023-08-01T09:18:47;8.20;;;3.50;;
7334;SDS011;3708;42.632;23.378;2023-08-01T09:21:17;4.95;;;3.28;;
7334;SDS011;3708;42.632;23.378;2023-08-01T09:23:44;7.18;;;3.45;;
7334;SDS011;3708;42.632;23.378;2023-08-01T09:26:14;5.30;;;3.15;;
7334;SDS011;3708;42.632;23.378;2023-08-01T09:28:41;4.13;;;3.05;;
7334;SDS011;3708;42.632;23.378;2023-08-01T09:31:09;6.13;;;2.92;;
7334;SDS011;3708;42.632;23.378;2023-08-01T09:33:37;6.10;;;3.70;;
7334;SDS011;3708;42.632;23.378;2023-08-01T09:36:08;5.65;;;3.05;;
7334;SDS011;3708;42.632;23.378;2023-08-01T09:38:36;6.22;;;3.90;;
7334;SDS011;3708;42.632;23.378;2023-08-01T09:41:05;6.15;;;3.60;;
7334;SDS011;3708;42.632;23.378;2023-08-01T09:43:35;5.70;;;3.33;;
7334;SDS011;3708;42.632;23.378;2023-08-01T09:46:03;9.40;;;3.80;;
7334;SDS011;3708;42.632;23.378;2023-08-01T09:48:33;7.38;;;3.80;;
7334;SDS011;3708;42.632;23.378;2023-08-01T09:51:08;4.88;;;3.15;;
7334;SDS011;3708;42.632;23.378;2023-08-01T09:53:36;13.18;;;4.55;;
7334;SDS011;3708;42.632;23.378;2023-08-01T09:56:13;6.65;;;3.40;;
7334;SDS011;3708;42.632;23.378;2023-08-01T09:58:42;5.03;;;3.45;;
7334;SDS011;3708;42.632;23.378;2023-08-01T10:01:09;5.13;;;3.45;;
7334;SDS011;3708;42.632;23.378;2023-08-01T10:03:37;5.15;;;3.47;;
7334;SDS011;3708;42.632;23.378;2023-08-01T10:06:07;6.13;;;3.83;;
7334;SDS011;3708;42.632;23.378;2023-08-01T10:08:34;5.28;;;3.83;;
7334;SDS011;3708;42.632;23.378;2023-08-01T10:11:04;4.22;;;3.22;;
7334;SDS011;3708;42.632;23.378;2023-08-01T10:13:31;10.00;;;3.47;;
7334;SDS011;3708;42.632;23.378;2023-08-01T10:15:59;7.85;;;3.47;;
7334;SDS011;3708;42.632;23.378;2023-08-01T10:18:26;7.45;;;3.40;;
7334;SDS011;3708;42.632;23.378;2023-08-01T10:20:55;6.28;;;3.65;;
7334;SDS011;3708;42.632;23.378;2023-08-01T10:23:24;4.60;;;3.47;;
7334;SDS011;3708;42.632;23.378;2023-08-01T10:25:52;10.68;;;3.60;;
7334;SDS011;3708;42.632;23.378;2023-08-01T10:28:21;5.30;;;3.47;;
7334;SDS011;3708;42.632;23.378;2023-08-01T10:31:05;5.30;;;3.53;;
7334;SDS011;3708;42.632;23.378;2023-08-01T10:33:33;4.03;;;3.33;;
7334;SDS011;3708;42.632;23.378;2023-08-01T10:36:01;7.63;;;3.42;;
7334;SDS011;3708;42.632;23.378;2023-08-01T10:38:45;4.35;;;2.80;;
7334;SDS011;3708;42.632;23.378;2023-08-01T10:41:20;4.32;;;3.00;;
7334;SDS011;3708;42.632;23.378;2023-08-01T10:43:48;6.75;;;3.88;;
7334;SDS011;3708;42.632;23.378;2023-08-01T10:46:14;7.53;;;3.80;;
7334;SDS011;3708;42.632;23.378;2023-08-01T10:48:48;6.10;;;3.55;;
7334;SDS011;3708;42.632;23.378;2023-08-01T10:51:16;4.85;;;3.08;;
7334;SDS011;3708;42.632;23.378;2023-08-01T10:53:43;5.97;;;3.28;;
7334;SDS011;3708;42.632;23.378;2023-08-01T10:56:18;3.30;;;2.95;;
7334;SDS011;3708;42.632;23.378;2023-08-01T10:58:46;5.20;;;3.65;;
7334;SDS011;3708;42.632;23.378;2023-08-01T11:01:14;4.10;;;3.50;;
7334;SDS011;3708;42.632;23.378;2023-08-01T11:03:41;6.00;;;3.53;;
7334;SDS011;3708;42.632;23.378;2023-08-01T11:06:09;7.22;;;3.50;;
7334;SDS011;3708;42.632;23.378;2023-08-01T11:08:37;6.25;;;3.45;;
7334;SDS011;3708;42.632;23.378;2023-08-01T11:11:05;12.50;;;3.72;;
7334;SDS011;3708;42.632;23.378;2023-08-01T11:13:35;9.18;;;3.20;;
7334;SDS011;3708;42.632;23.378;2023-08-01T11:16:02;3.53;;;3.17;;
7334;SDS011;3708;42.632;23.378;2023-08-01T11:18:30;4.65;;;2.83;;
7334;SDS011;3708;42.632;23.378;2023-08-01T11:20:57;5.30;;;3.03;;
7334;SDS011;3708;42.632;23.378;2023-08-01T11:23:30;7.93;;;3.40;;
7334;SDS011;3708;42.632;23.378;2023-08-01T11:25:56;3.65;;;2.60;;
7334;SDS011;3708;42.632;23.378;2023-08-01T11:28:23;3.10;;;2.78;;
7334;SDS011;3708;42.632;23.378;2023-08-01T11:30:52;3.15;;;2.85;;
7334;SDS011;3708;42.632;23.378;2023-08-01T11:33:19;3.78;;;3.13;;
7334;SDS011;3708;42.632;23.378;2023-08-01T11:35:49;4.28;;;3.08;;
7334;SDS011;3708;42.632;23.378;2023-08-01T11:38:17;3.97;;;3.15;;
7334;SDS011;3708;42.632;23.378;2023-08-01T11:40:44;4.80;;;3.20;;
7334;SDS011;3708;42.632;23.378;2023-08-01T11:43:14;4.18;;;3.03;;
7334;SDS011;3708;42.632;23.378;2023-08-01T11:45:48;4.43;;;2.88;;
7334;SDS011;3708;42.632;23.378;2023-08-01T11:48:16;3.60;;;2.60;;
7334;SDS011;3708;42.632;23.378;2023-08-01T11:50:44;3.95;;;2.65;;
7334;SDS011;3708;42.632;23.378;2023-08-01T11:53:17;3.35;;;2.67;;
7334;SDS011;3708;42.632;23.378;2023-08-01T11:55:44;5.55;;;2.53;;
7334;SDS011;3708;42.632;23.378;2023-08-01T11:58:11;3.53;;;2.63;;
7334;SDS011;3708;42.632;23.378;2023-08-01T12:00:39;4.20;;;3.17;;
7334;SDS011;3708;42.632;23.378;2023-08-01T12:03:08;3.33;;;2.88;;
7334;SDS011;3708;42.632;23.378;2023-08-01T12:05:41;3.97;;;2.38;;
7334;SDS011;3708;42.632;23.378;2023-08-01T12:08:13;5.75;;;2.83;;
7334;SDS011;3708;42.632;23.378;2023-08-01T12:10:43;3.75;;;3.05;;
7334;SDS011;3708;42.632;23.378;2023-08-01T12:13:21;4.10;;;3.42;;
7334;SDS011;3708;42.632;23.378;2023-08-01T12:15:49;3.67;;;2.78;;
7334;SDS011;3708;42.632;23.378;2023-08-01T12:18:20;4.35;;;3.38;;
7334;SDS011;3708;42.632;23.378;2023-08-01T12:20:49;6.25;;;2.90;;
7334;SDS011;3708;42.632;23.378;2023-08-01T12:23:16;4.20;;;2.78;;
7334;SDS011;3708;42.632;23.378;2023-08-01T12:25:43;3.58;;;2.63;;
7334;SDS011;3708;42.632;23.378;2023-08-01T12:28:10;6.22;;;3.38;;
7334;SDS011;3708;42.632;23.378;2023-08-01T12:30:38;8.93;;;3.05;;
7334;SDS011;3708;42.632;23.378;2023-08-01T12:33:05;4.75;;;3.40;;
7334;SDS011;3708;42.632;23.378;2023-08-01T12:35:32;6.90;;;3.40;;
7334;SDS011;3708;42.632;23.378;2023-08-01T12:38:00;4.45;;;3.33;;
7334;SDS011;3708;42.632;23.378;2023-08-01T12:40:27;5.72;;;3.58;;
7334;SDS011;3708;42.632;23.378;2023-08-01T12:42:54;7.78;;;3.05;;
7334;SDS011;3708;42.632;23.378;2023-08-01T12:45:21;5.30;;;2.72;;
7334;SDS011;3708;42.632;23.378;2023-08-01T12:47:49;3.20;;;2.45;;
7334;SDS011;3708;42.632;23.378;2023-08-01T12:50:16;4.78;;;3.13;;
7334;SDS011;3708;42.632;23.378;2023-08-01T12:52:43;4.05;;;3.25;;
7334;SDS011;3708;42.632;23.378;2023-08-01T12:55:12;4.47;;;2.75;;
7334;SDS011;3708;42.632;23.378;2023-08-01T12:57:39;5.70;;;2.63;;
7334;SDS011;3708;42.632;23.378;2023-08-01T13:00:06;3.92;;;2.88;;
7334;SDS011;3708;42.632;23.378;2023-08-01T13:02:35;5.78;;;2.70;;
7334;SDS011;3708;42.632;23.378;2023-08-01T13:05:07;3.05;;;2.75;;
7334;SDS011;3708;42.632;23.378;2023-08-01T13:07:35;4.35;;;2.50;;
7334;SDS011;3708;42.632;23.378;2023-08-01T13:10:02;6.63;;;3.65;;
7334;SDS011;3708;42.632;23.378;2023-08-01T13:12:31;7.10;;;2.92;;
7334;SDS011;3708;42.632;23.378;2023-08-01T13:14:57;4.75;;;2.65;;
7334;SDS011;3708;42.632;23.378;2023-08-01T13:17:25;3.10;;;2.80;;
7334;SDS011;3708;42.632;23.378;2023-08-01T13:19:51;3.83;;;2.88;;
7334;SDS011;3708;42.632;23.378;2023-08-01T13:22:18;4.32;;;3.00;;
7334;SDS011;3708;42.632;23.378;2023-08-01T13:24:45;4.80;;;3.10;;
7334;SDS011;3708;42.632;23.378;2023-08-01T13:27:12;3.67;;;2.45;;
7334;SDS011;3708;42.632;23.378;2023-08-01T13:29:40;4.50;;;2.75;;
7334;SDS011;3708;42.632;23.378;2023-08-01T13:32:09;5.30;;;3.17;;
7334;SDS011;3708;42.632;23.378;2023-08-01T13:34:36;3.60;;;2.70;;
7334;SDS011;3708;42.632;23.378;2023-08-01T13:37:03;5.10;;;2.58;;
7334;SDS011;3708;42.632;23.378;2023-08-01T13:39:30;3.22;;;2.83;;
7334;SDS011;3708;42.632;23.378;2023-08-01T13:41:57;5.55;;;2.97;;
7334;SDS011;3708;42.632;23.378;2023-08-01T13:44:24;3.42;;;2.70;;
7334;SDS011;3708;42.632;23.378;2023-08-01T13:46:52;2.80;;;2.47;;
7334;SDS011;3708;42.632;23.378;2023-08-01T13:49:19;5.07;;;2.50;;
7334;SDS011;3708;42.632;23.378;2023-08-01T13:51:46;2.45;;;2.25;;
7334;SDS011;3708;42.632;23.378;2023-08-01T13:54:12;3.10;;;2.40;;
7334;SDS011;3708;42.632;23.378;2023-08-01T13:56:39;2.85;;;2.20;;
7334;SDS011;3708;42.632;23.378;2023-08-01T13:59:06;2.83;;;2.30;;
7334;SDS011;3708;42.632;23.378;2023-08-01T14:01:34;5.68;;;2.67;;
7334;SDS011;3708;42.632;23.378;2023-08-01T14:04:03;3.35;;;2.42;;
7334;SDS011;3708;42.632;23.378;2023-08-01T14:06:30;3.35;;;2.33;;
7334;SDS011;3708;42.632;23.378;2023-08-01T14:08:57;4.10;;;2.65;;
7334;SDS011;3708;42.632;23.378;2023-08-01T14:11:24;2.80;;;2.58;;
7334;SDS011;3708;42.632;23.378;2023-08-01T14:13:51;4.03;;;2.35;;
7334;SDS011;3708;42.632;23.378;2023-08-01T14:16:17;4.65;;;2.58;;
7334;SDS011;3708;42.632;23.378;2023-08-01T14:18:44;4.28;;;2.50;;
7334;SDS011;3708;42.632;23.378;2023-08-01T14:21:13;4.95;;;2.25;;
7334;SDS011;3708;42.632;23.378;2023-08-01T14:23:39;2.90;;;2.17;;
7334;SDS011;3708;42.632;23.378;2023-08-01T14:26:07;3.92;;;2.88;;
7334;SDS011;3708;42.632;23.378;2023-08-01T14:28:34;3.50;;;2.05;;
7334;SDS011;3708;42.632;23.378;2023-08-01T14:31:01;3.85;;;2.50;;
7334;SDS011;3708;42.632;23.378;2023-08-01T14:33:29;4.18;;;2.70;;
7334;SDS011;3708;42.632;23.378;2023-08-01T14:35:56;3.42;;;2.08;;
7334;SDS011;3708;42.632;23.378;2023-08-01T14:38:25;6.90;;;2.67;;
7334;SDS011;3708;42.632;23.378;2023-08-01T14:40:52;7.43;;;2.47;;
7334;SDS011;3708;42.632;23.378;2023-08-01T14:43:19;4.35;;;2.50;;
7334;SDS011;3708;42.632;23.378;2023-08-01T14:45:46;2.55;;;2.33;;
7334;SDS011;3708;42.632;23.378;2023-08-01T14:48:13;2.38;;;2.00;;
7334;SDS011;3708;42.632;23.378;2023-08-01T14:50:40;5.25;;;2.30;;
7334;SDS011;3708;42.632;23.378;2023-08-01T14:53:09;4.45;;;2.40;;
7334;SDS011;3708;42.632;23.378;2023-08-01T14:55:37;5.03;;;2.03;;
7334;SDS011;3708;42.632;23.378;2023-08-01T14:58:04;6.95;;;2.50;;
7334;SDS011;3708;42.632;23.378;2023-08-01T15:00:34;5.95;;;2.90;;
7334;SDS011;3708;42.632;23.378;2023-08-01T15:03:01;3.60;;;2.65;;
7334;SDS011;3708;42.632;23.378;2023-08-01T15:05:31;5.10;;;2.38;;
7334;SDS011;3708;42.632;23.378;2023-08-01T15:07:58;5.13;;;3.00;;